Time;durP1;ratioP1;P1;durP2;ratioP2;P2;SDS_P1;SDS_P2;PMS_P1;PMS_P2;Temp;Humidity;BMP_temperature;BMP_pressure;BME280_temperature;BME280_humidity;BME280_pressure;Samples;Min_cycle;Max_cycle;Signal;HPM_P1;HPM_P2
2021/11/09 00:00:21;;;;;;;19.27;8.13;;;;;;;8.22;100.00;95356.63;5047478;28;20103;-72
2021/11/09 00:02:50;;;;;;;15.15;7.70;;;;;;;8.19;100.00;95352.66;5046128;28;21835;-72
2021/11/09 00:05:19;;;;;;;20.63;8.95;;;;;;;8.20;100.00;95354.22;5043860;28;20053;-73
2021/11/09 00:07:58;;;;;;;20.67;9.50;;;;;;;8.14;100.00;95349.88;5047130;28;20856;-72
2021/11/09 00:10:30;;;;;;;16.92;8.88;;;;;;;8.08;100.00;95350.66;5047232;28;20120;-72
2021/11/09 00:13:01;;;;;;;16.42;8.98;;;;;;;8.21;100.00;95366.22;5046043;28;20045;-73
2021/11/09 00:15:31;;;;;;;21.63;9.93;;;;;;;8.36;100.00;95362.59;5047687;28;20045;-72
2021/11/09 00:18:01;;;;;;;17.23;9.98;;;;;;;8.59;100.00;95383.72;5048152;28;20053;-72
2021/11/09 00:20:30;;;;;;;23.88;9.48;;;;;;;8.80;100.00;95384.44;5029939;28;20036;-72
2021/11/09 00:22:58;;;;;;;18.10;10.20;;;;;;;8.92;100.00;95382.81;5047416;28;20049;-73
2021/11/09 00:25:25;;;;;;;19.40;8.90;;;;;;;8.95;100.00;95351.22;5047093;28;20055;-72
2021/11/09 00:27:53;;;;;;;20.88;8.60;;;;;;;9.07;100.00;95358.34;5047344;28;20051;-72
2021/11/09 00:30:22;;;;;;;21.50;8.77;;;;;;;9.18;100.00;95375.88;5046292;28;20060;-73
2021/11/09 00:32:49;;;;;;;17.20;9.40;;;;;;;9.16;100.00;95362.28;5046484;28;20048;-72
2021/11/09 00:35:21;;;;;;;20.80;9.75;;;;;;;9.23;100.00;95352.66;5046720;28;20060;-72
2021/11/09 00:37:49;;;;;;;21.30;11.68;;;;;;;9.22;100.00;95356.28;5029810;28;20417;-72
2021/11/09 00:40:19;;;;;;;20.02;12.35;;;;;;;9.27;100.00;95355.63;5046194;28;20127;-72
2021/11/09 00:42:46;;;;;;;20.98;11.13;;;;;;;9.28;100.00;95358.03;5047351;28;20045;-73
2021/11/09 00:45:14;;;;;;;14.90;8.75;;;;;;;9.25;100.00;95342.84;5047137;28;20044;-72
2021/11/09 00:47:42;;;;;;;15.55;9.07;;;;;;;9.41;100.00;95348.56;5047239;28;20522;-73
2021/11/09 00:50:11;;;;;;;13.85;8.23;;;;;;;9.41;100.00;95343.34;5045698;28;20117;-72
2021/11/09 00:52:38;;;;;;;14.40;7.15;;;;;;;9.40;100.00;95331.34;5044134;28;20051;-73
2021/11/09 00:55:06;;;;;;;13.80;7.35;;;;;;;9.48;100.00;95338.91;5047398;28;20047;-72
2021/11/09 00:57:33;;;;;;;13.60;7.68;;;;;;;9.36;100.00;95350.00;5046767;28;20115;-72
2021/11/09 01:00:01;;;;;;;28.85;9.98;;;;;;;9.42;100.00;95350.13;5046531;28;20036;-72
2021/11/09 01:02:28;;;;;;;17.13;8.50;;;;;;;9.43;100.00;95351.75;5046699;28;20120;-72
2021/11/09 01:04:55;;;;;;;24.23;9.02;;;;;;;9.45;100.00;95344.53;5046518;28;20048;-72
2021/11/09 01:07:22;;;;;;;22.25;9.20;;;;;;;9.38;100.00;95340.19;5045492;28;20059;-73
2021/11/09 01:09:49;;;;;;;17.98;8.23;;;;;;;9.45;100.00;95349.72;5046466;28;20041;-73
2021/11/09 01:12:16;;;;;;;19.10;8.80;;;;;;;9.44;100.00;95325.53;5046538;28;20128;-73
2021/11/09 01:14:43;;;;;;;23.90;9.23;;;;;;;9.40;100.00;95306.19;5028718;28;20049;-72
2021/11/09 01:17:10;;;;;;;23.27;8.90;;;;;;;9.29;100.00;95305.06;5028532;28;20045;-73
2021/11/09 01:19:38;;;;;;;21.70;9.85;;;;;;;9.25;100.00;95296.06;5045593;28;20132;-73
2021/11/09 01:22:06;;;;;;;17.05;9.05;;;;;;;9.24;100.00;95317.88;5046655;28;20060;-73
2021/11/09 01:24:34;;;;;;;26.83;11.23;;;;;;;9.27;100.00;95338.22;5047072;28;20087;-72
2021/11/09 01:27:01;;;;;;;19.75;9.77;;;;;;;9.29;100.00;95341.44;5028587;28;20417;-72
2021/11/09 01:29:28;;;;;;;16.65;10.35;;;;;;;9.29;100.00;95349.25;5046441;28;20044;-72
2021/11/09 01:31:56;;;;;;;18.33;9.40;;;;;;;9.32;100.00;95345.41;5045336;28;20063;-72
2021/11/09 01:34:23;;;;;;;16.38;9.38;;;;;;;9.27;100.00;95353.03;5044354;28;20040;-72
2021/11/09 01:36:50;;;;;;;20.67;10.02;;;;;;;9.26;100.00;95364.47;5046151;28;20051;-72
2021/11/09 01:39:17;;;;;;;19.10;9.50;;;;;;;9.11;100.00;95375.94;5046059;28;20045;-72
2021/11/09 01:41:44;;;;;;;22.83;9.45;;;;;;;8.98;100.00;95376.78;5046113;28;20111;-73
2021/11/09 01:44:12;;;;;;;14.77;8.13;;;;;;;8.82;100.00;95379.84;5046096;28;20127;-73
2021/11/09 01:46:39;;;;;;;16.75;10.18;;;;;;;8.64;100.00;95364.13;5045743;28;20464;-72
2021/11/09 01:49:07;;;;;;;15.65;8.88;;;;;;;8.52;100.00;95369.19;5046317;28;20033;-72
2021/11/09 01:51:35;;;;;;;18.13;9.15;;;;;;;8.44;100.00;95375.38;5043820;28;22053;-73
2021/11/09 01:54:07;;;;;;;15.45;8.15;;;;;;;8.49;100.00;95393.72;5044696;28;20047;-72
2021/11/09 01:56:35;;;;;;;19.30;9.05;;;;;;;8.46;100.00;95394.13;5046578;28;20116;-72
2021/11/09 01:59:04;;;;;;;19.23;8.95;;;;;;;8.37;100.00;95382.34;5045623;28;20041;-72
2021/11/09 02:01:31;;;;;;;16.15;8.52;;;;;;;8.52;100.00;95402.94;5043977;28;20045;-72
2021/11/09 02:04:02;;;;;;;19.65;8.27;;;;;;;8.51;100.00;95402.09;5045414;28;20079;-72
2021/11/09 02:06:29;;;;;;;18.45;7.93;;;;;;;8.55;100.00;95408.50;5045479;28;20546;-72
2021/11/09 02:09:04;;;;;;;16.08;8.40;;;;;;;8.41;100.00;95401.72;5045510;28;20072;-72
2021/11/09 02:11:31;;;;;;;16.42;8.60;;;;;;;8.36;100.00;95398.94;5045363;28;20049;-72
2021/11/09 02:13:59;;;;;;;15.30;8.65;;;;;;;8.40;100.00;95405.31;5010351;28;20049;-72
2021/11/09 02:16:27;;;;;;;18.55;8.40;;;;;;;8.48;100.00;95407.72;5045461;28;20045;-72
2021/11/09 02:18:54;;;;;;;15.77;8.15;;;;;;;8.40;100.00;95389.72;5045599;28;20044;-73
2021/11/09 02:21:21;;;;;;;17.17;9.52;;;;;;;8.47;100.00;95395.75;5045482;28;20045;-72
2021/11/09 02:23:48;;;;;;;16.55;8.43;;;;;;;8.55;100.00;95413.72;5044226;28;20494;-73
2021/11/09 02:26:20;;;;;;;15.82;8.25;;;;;;;8.54;100.00;95417.28;5045449;28;20166;-72
2021/11/09 02:28:49;;;;;;;20.27;8.80;;;;;;;8.42;100.00;95392.94;5045163;28;20043;-72
2021/11/09 02:31:16;;;;;;;17.67;8.63;;;;;;;8.55;100.00;95418.91;5027829;28;20537;-72
2021/11/09 02:33:43;;;;;;;21.38;9.88;;;;;;;8.41;100.00;95401.72;5045015;28;20045;-73
2021/11/09 02:36:10;;;;;;;17.27;8.93;;;;;;;8.38;100.00;95396.94;5045176;28;20801;-73
2021/11/09 02:38:38;;;;;;;20.20;10.15;;;;;;;8.35;100.00;95392.91;5045241;28;20041;-72
2021/11/09 02:41:05;;;;;;;25.02;10.68;;;;;;;8.38;100.00;95408.09;5044959;28;20056;-73
2021/11/09 02:43:33;;;;;;;15.13;8.40;;;;;;;8.36;100.00;95406.72;5045373;28;20040;-72
2021/11/09 02:49:07;;;;;;;21.40;9.85;;;;;;;8.50;100.00;95412.69;5045147;28;20084;-72
2021/11/09 02:51:43;;;;;;;20.52;10.07;;;;;;;8.45;100.00;95418.50;5043657;28;20037;-73
2021/11/09 02:54:25;;;;;;;20.08;8.50;;;;;;;8.47;100.00;95426.88;5044457;28;20041;-73
2021/11/09 03:02:35;;;;;;;17.88;7.72;;;;;;;8.19;100.00;95446.06;5044639;28;20053;-73
2021/11/09 03:10:04;;;;;;;22.25;9.35;;;;;;;8.22;100.00;95445.66;5044331;28;20052;-72
2021/11/09 03:12:34;;;;;;;18.73;9.20;;;;;;;8.07;100.00;95436.47;5026919;28;20057;-73
2021/11/09 03:15:01;;;;;;;18.63;9.63;;;;;;;8.11;100.00;95428.09;5046779;28;20037;-73
2021/11/09 03:20:25;;;;;;;19.90;9.80;;;;;;;8.11;100.00;95454.03;5048771;28;20502;-73
2021/11/09 03:45:08;;;;;;;19.75;9.18;;;;;;;8.32;100.00;95444.44;5048222;28;20524;-73
2021/11/09 03:47:42;;;;;;;18.53;7.77;;;;;;;8.34;100.00;95453.63;5047908;28;20098;-73
2021/11/09 03:50:10;;;;;;;17.10;9.32;;;;;;;8.17;100.00;95471.38;5048077;28;21011;-73
2021/11/09 03:52:43;;;;;;;18.38;9.07;;;;;;;8.26;100.00;95473.78;5047032;28;20564;-73
2021/11/09 03:55:14;;;;;;;20.40;10.25;;;;;;;8.28;100.00;95464.00;5047161;28;20422;-73
2021/11/09 03:57:51;;;;;;;25.88;10.13;;;;;;;8.33;100.00;95456.44;5030263;28;20049;-73
2021/11/09 04:00:32;;;;;;;19.52;9.48;;;;;;;8.20;100.00;95447.66;5047930;28;20045;-73
2021/11/09 04:03:49;;;;;;;23.95;9.27;;;;;;;8.33;100.00;95466.81;5047147;28;20045;-73
2021/11/09 04:05:52;;;;;;;21.13;7.72;;;;;;;8.45;100.00;95477.44;5036333;28;20049;-73
2021/11/09 04:11:11;;;;;;;16.98;8.80;;;;;;;8.56;100.00;95467.22;5047799;28;20564;-73
2021/11/09 04:19:05;;;;;;;17.63;8.82;;;;;;;8.08;100.00;95464.81;5047127;28;20065;-73
2021/11/09 04:24:37;;;;;;;19.88;8.50;;;;;;;7.81;100.00;95458.81;5046171;28;20037;-73
2021/11/09 04:49:18;;;;;;;19.85;9.48;;;;;;;7.91;100.00;95489.56;5046674;28;20046;-73
2021/11/09 05:10:31;;;;;;;18.50;8.55;;;;;;;9.10;100.00;95487.88;5045654;28;20049;-73
2021/11/09 05:12:57;;;;;;;15.98;8.10;;;;;;;9.06;100.00;95512.69;5045517;28;20518;-73
2021/11/09 05:15:24;;;;;;;16.85;8.60;;;;;;;9.09;100.00;95513.06;5028903;28;20557;-73
2021/11/09 05:17:51;;;;;;;18.67;9.27;;;;;;;9.02;100.00;95527.06;5046741;28;20040;-73
2021/11/09 05:20:18;;;;;;;23.67;11.88;;;;;;;8.96;100.00;95528.69;5028529;28;20041;-73
2021/11/09 05:22:45;;;;;;;17.77;10.57;;;;;;;8.86;100.00;95534.31;5046678;28;20405;-73
2021/11/09 05:25:13;;;;;;;17.63;8.07;;;;;;;8.91;100.00;95552.69;5046574;28;20421;-73
2021/11/09 05:27:41;;;;;;;21.05;9.70;;;;;;;8.76;100.00;95550.28;5046616;28;20044;-73
2021/11/09 05:30:08;;;;;;;62.65;28.73;;;;;;;8.49;100.00;95539.13;5046698;28;20037;-73
2021/11/09 05:32:35;;;;;;;33.58;16.98;;;;;;;8.38;100.00;95534.50;5045716;28;20045;-73
2021/11/09 05:35:03;;;;;;;34.30;17.55;;;;;;;8.29;100.00;95533.09;5046218;28;20551;-74
2021/11/09 05:37:36;;;;;;;21.77;12.35;;;;;;;8.17;100.00;95541.44;5028090;28;20441;-73
2021/11/09 05:40:05;;;;;;;86.80;40.60;;;;;;;8.24;100.00;95557.03;5046622;28;20044;-73
2021/11/09 05:42:33;;;;;;;27.88;13.60;;;;;;;8.26;100.00;95543.88;5046700;28;20041;-73
2021/11/09 05:45:00;;;;;;;23.92;13.30;;;;;;;8.14;100.00;95536.69;5046450;28;20053;-73
2021/11/09 05:47:28;;;;;;;18.52;9.23;;;;;;;8.26;100.00;95538.69;5046308;28;20041;-73
2021/11/09 05:49:55;;;;;;;19.55;9.20;;;;;;;8.38;100.00;95547.47;5045706;28;20477;-74
2021/11/09 05:52:22;;;;;;;23.40;10.15;;;;;;;8.33;100.00;95542.06;5044977;28;20052;-73
2021/11/09 05:54:49;;;;;;;19.85;9.90;;;;;;;8.15;100.00;95545.25;5045622;28;20041;-73
2021/11/09 05:57:16;;;;;;;16.48;9.48;;;;;;;8.42;100.00;95579.84;5045819;28;20045;-73
2021/11/09 05:59:43;;;;;;;17.90;8.18;;;;;;;8.46;100.00;95588.81;5045375;28;20502;-73
2021/11/09 06:02:11;;;;;;;34.08;17.73;;;;;;;8.47;100.00;95582.66;5045875;28;20049;-73
2021/11/09 06:04:38;;;;;;;21.83;10.73;;;;;;;8.38;100.00;95589.78;5043329;28;20072;-74
2021/11/09 06:07:06;;;;;;;18.88;9.05;;;;;;;8.41;100.00;95604.97;5027801;28;20059;-73
2021/11/09 06:09:33;;;;;;;16.50;8.45;;;;;;;8.49;100.00;95596.22;5027741;28;20422;-73
2021/11/09 06:12:01;;;;;;;13.27;8.10;;;;;;;8.41;100.00;95609.38;5045376;28;20128;-72
2021/11/09 06:14:28;;;;;;;19.25;9.23;;;;;;;8.42;100.00;95601.41;5045641;28;20037;-73
2021/11/09 06:16:58;;;;;;;18.60;9.80;;;;;;;8.48;100.00;95605.03;5045944;28;20430;-72
2021/11/09 06:19:25;;;;;;;16.02;7.95;;;;;;;8.52;100.00;95611.41;5043679;28;20041;-72
2021/11/09 06:21:52;;;;;;;23.45;10.10;;;;;;;8.64;100.00;95616.00;5044115;28;20051;-72
2021/11/09 06:24:19;;;;;;;15.80;8.00;;;;;;;8.70;100.00;95625.63;5043377;28;20041;-72
2021/11/09 06:26:46;;;;;;;16.02;7.93;;;;;;;8.78;100.00;95626.19;5044654;28;20461;-72
2021/11/09 06:29:14;;;;;;;16.05;8.07;;;;;;;8.79;100.00;95627.03;5044791;28;20095;-72
2021/11/09 06:31:41;;;;;;;17.02;8.48;;;;;;;8.80;100.00;95619.03;5044741;28;20131;-72
2021/11/09 06:34:09;;;;;;;17.58;8.57;;;;;;;8.82;100.00;95611.00;5044415;28;20094;-72
2021/11/09 06:36:36;;;;;;;16.00;8.55;;;;;;;8.95;100.00;95605.81;5044396;28;20047;-72
2021/11/09 06:39:07;;;;;;;16.77;7.32;;;;;;;9.15;100.00;95605.00;5045376;28;20056;-72
2021/11/09 06:41:34;;;;;;;15.40;7.53;;;;;;;9.01;100.00;95609.41;5044939;28;20037;-72
2021/11/09 06:44:02;;;;;;;18.20;9.23;;;;;;;9.10;100.00;95607.41;5044668;28;20427;-72
2021/11/09 06:46:28;;;;;;;32.47;17.85;;;;;;;9.00;100.00;95618.19;5044280;28;20418;-72
2021/11/09 06:48:55;;;;;;;27.08;13.55;;;;;;;8.88;100.00;95620.63;5044438;28;20041;-73
2021/11/09 06:51:22;;;;;;;23.45;10.75;;;;;;;9.10;100.00;95623.78;5048523;28;20464;-72
2021/11/09 06:53:49;;;;;;;30.77;13.13;;;;;;;8.90;100.00;95616.03;5046996;28;20049;-72
2021/11/09 06:56:16;;;;;;;25.52;11.20;;;;;;;8.78;100.00;95615.00;5049256;28;20041;-72
2021/11/09 06:58:43;;;;;;;26.38;11.30;;;;;;;8.63;100.00;95611.84;5049174;28;20044;-72
2021/11/09 07:01:10;;;;;;;18.70;9.30;;;;;;;8.78;100.00;95630.59;5048519;28;20049;-72
2021/11/09 07:03:38;;;;;;;17.20;8.70;;;;;;;8.95;100.00;95605.81;5030982;28;20114;-71
2021/11/09 07:06:05;;;;;;;15.85;7.85;;;;;;;9.13;100.00;95620.00;5031928;28;20143;-71
2021/11/09 07:08:32;;;;;;;16.92;8.25;;;;;;;9.27;100.00;95639.75;5048380;28;20048;-72
2021/11/09 07:11:00;;;;;;;17.13;8.38;;;;;;;9.32;100.00;95634.75;5031502;28;20083;-71
2021/11/09 07:13:27;;;;;;;18.63;9.07;;;;;;;9.35;100.00;95626.56;5030939;28;20534;-72
2021/11/09 07:15:54;;;;;;;27.20;12.95;;;;;;;9.36;100.00;95628.16;5048377;28;20037;-72
2021/11/09 07:18:21;;;;;;;25.58;13.63;;;;;;;9.23;100.00;95612.56;5048891;28;20085;-72
2021/11/09 07:20:50;;;;;;;19.40;9.85;;;;;;;9.14;100.00;95604.19;5048668;28;20044;-72
2021/11/09 07:23:17;;;;;;;21.33;10.55;;;;;;;9.06;100.00;95590.63;5048329;28;20033;-72
2021/11/09 07:25:44;;;;;;;20.20;9.77;;;;;;;9.31;100.00;95625.38;5048315;28;20041;-72
2021/11/09 07:28:11;;;;;;;17.30;8.73;;;;;;;9.43;100.00;95622.94;5048415;28;20425;-72
2021/11/09 07:30:47;;;;;;;20.45;8.88;;;;;;;9.48;100.00;95630.13;5048657;28;20128;-72
2021/11/09 07:33:13;;;;;;;23.02;8.73;;;;;;;9.61;100.00;95656.09;5029480;28;20040;-72
2021/11/09 07:35:40;;;;;;;19.70;11.13;;;;;;;9.61;100.00;95666.50;5047148;28;20102;-72
2021/11/09 07:38:07;;;;;;;51.97;17.27;;;;;;;9.63;100.00;95669.69;5048037;28;20483;-72
2021/11/09 07:40:34;;;;;;;23.08;9.27;;;;;;;9.61;100.00;95676.91;5047996;28;20028;-71
2021/11/09 07:43:01;;;;;;;21.35;9.85;;;;;;;9.55;100.00;95685.53;5047559;28;20049;-71
2021/11/09 07:45:28;;;;;;;15.18;8.55;;;;;;;9.62;100.00;95688.91;5047838;28;20620;-71
2021/11/09 07:47:58;;;;;;;21.70;8.48;;;;;;;9.52;100.00;95689.31;5048015;28;20041;-71
2021/11/09 07:50:25;;;;;;;91.68;34.55;;;;;;;9.55;100.00;95690.72;5047379;28;20049;-71
2021/11/09 07:52:57;;;;;;;39.75;16.60;;;;;;;9.55;100.00;95690.72;5046216;28;20040;-71
2021/11/09 07:55:27;;;;;;;21.83;10.98;;;;;;;9.53;100.00;95697.94;5047746;28;20037;-71
2021/11/09 07:57:58;;;;;;;28.65;13.77;;;;;;;9.56;100.00;95700.09;5047876;28;20051;-71
2021/11/09 08:00:32;;;;;;;22.02;10.55;;;;;;;9.53;100.00;95708.34;5047167;28;20490;-71
2021/11/09 08:03:11;;;;;;;23.27;8.50;;;;;;;9.36;100.00;95695.75;5047890;28;20468;-71
2021/11/09 08:08:37;;;;;;;24.48;11.95;;;;;;;9.52;100.00;95724.94;5047366;28;20048;-71
2021/11/09 08:11:07;;;;;;;21.15;10.90;;;;;;;9.37;100.00;95738.94;5047696;28;20486;-70
2021/11/09 08:13:35;;;;;;;22.98;11.60;;;;;;;9.44;100.00;95748.56;5047554;28;20044;-70
2021/11/09 08:16:01;;;;;;;25.10;11.63;;;;;;;9.29;100.00;95757.34;5047550;28;20059;-71
2021/11/09 08:18:28;;;;;;;26.45;12.25;;;;;;;9.37;100.00;95749.34;5046250;28;20635;-70
2021/11/09 08:20:58;;;;;;;21.48;9.43;;;;;;;9.51;100.00;95757.16;5046544;28;20059;-70
2021/11/09 08:23:25;;;;;;;17.92;10.68;;;;;;;9.57;100.00;95753.75;5047200;28;20136;-70
2021/11/09 08:25:53;;;;;;;19.90;10.75;;;;;;;9.50;100.00;95739.94;5047215;28;20040;-70
2021/11/09 08:28:21;;;;;;;22.30;10.02;;;;;;;9.63;100.00;95750.31;5047353;28;20052;-70
2021/11/09 08:30:51;;;;;;;21.25;11.57;;;;;;;9.61;100.00;95775.72;5046997;28;20045;-70
2021/11/09 08:33:19;;;;;;;20.13;10.55;;;;;;;9.60;100.00;95784.56;5045011;28;20049;-70
2021/11/09 08:35:46;;;;;;;26.80;13.32;;;;;;;9.53;100.00;95768.94;5045710;28;20037;-70
2021/11/09 08:38:15;;;;;;;23.60;11.10;;;;;;;9.58;100.00;95781.34;5046876;28;20405;-71
2021/11/09 08:40:43;;;;;;;22.02;11.05;;;;;;;9.53;100.00;95768.16;5046652;28;20037;-70
2021/11/09 08:43:11;;;;;;;31.77;15.23;;;;;;;9.57;100.00;95769.34;5042629;28;20047;-71
2021/11/09 08:46:16;;;;;;;24.90;12.25;;;;;;;9.46;100.00;95782.97;5046690;28;20048;-70
2021/11/09 08:48:37;;;;;;;32.72;12.35;;;;;;;9.32;100.00;95798.53;5044053;28;20140;-71
2021/11/09 08:51:08;;;;;;;32.08;13.23;;;;;;;9.23;100.00;95797.13;5041521;28;20025;-71
2021/11/09 08:53:52;;;;;;;28.98;13.55;;;;;;;9.35;100.00;95803.34;5041475;28;20049;-71
2021/11/09 09:04:17;;;;;;;23.10;10.77;;;;;;;9.65;100.00;95766.53;5046513;28;20056;-71
2021/11/09 09:06:46;;;;;;;22.70;11.70;;;;;;;9.67;100.00;95769.75;5046517;28;20051;-71
2021/11/09 09:09:14;;;;;;;25.25;11.40;;;;;;;9.80;100.00;95770.72;5045438;28;20064;-71
2021/11/09 09:11:42;;;;;;;24.65;10.45;;;;;;;9.90;100.00;95771.91;5046023;28;20107;-71
2021/11/09 09:14:09;;;;;;;21.70;10.30;;;;;;;9.90;100.00;95768.50;5046406;28;20045;-72
2021/11/09 09:16:38;;;;;;;26.23;11.48;;;;;;;9.99;100.00;95782.09;5028021;28;20060;-70
2021/11/09 09:19:05;;;;;;;18.55;10.15;;;;;;;10.02;100.00;95774.69;5046565;28;20438;-70
2021/11/09 09:22:09;;;;;;;21.63;10.88;;;;;;;9.87;100.00;95754.09;5045157;28;20033;-71
2021/11/09 09:24:40;;;;;;;24.80;11.77;;;;;;;9.97;100.00;95771.88;5042213;28;20049;-71
2021/11/09 09:29:58;;;;;;;40.03;14.07;;;;;;;10.06;100.00;95783.66;5028497;28;20509;-71
2021/11/09 09:32:46;;;;;;;21.15;8.32;;;;;;;10.09;100.00;95793.69;5028544;28;20036;-71
2021/11/09 09:54:45;;;;;;;14.75;8.25;;;;;;;9.94;97.40;95816.56;5039104;28;20528;-71
2021/11/09 09:57:14;;;;;;;16.05;7.68;;;;;;;9.69;97.60;95832.78;5027216;28;20056;-72
2021/11/09 09:59:45;;;;;;;12.85;7.20;;;;;;;9.51;97.67;95848.16;5045287;28;20048;-72
2021/11/09 10:02:22;;;;;;;16.38;7.10;;;;;;;9.46;97.13;95866.16;5027410;28;20037;-71
2021/11/09 10:04:57;;;;;;;18.85;7.18;;;;;;;9.30;97.71;95839.53;5045012;28;20564;-72
2021/11/09 10:07:42;;;;;;;14.27;7.30;;;;;;;9.38;97.86;95865.34;5045105;28;20116;-72
2021/11/09 10:10:11;;;;;;;;;;;;;;;9.29;97.51;95866.53;5046140;28;20513;-72
2021/11/09 10:12:40;;;;;;;12.30;5.97;;;;;;;9.24;98.60;95874.13;5045044;28;19924;-72
2021/11/09 10:15:11;;;;;;;14.82;6.82;;;;;;;9.18;100.00;95869.69;5044321;28;20053;-72
2021/11/09 10:17:41;;;;;;;14.00;7.40;;;;;;;9.08;100.00;95864.88;5025839;28;20114;-72
2021/11/09 10:20:11;;;;;;;16.33;7.30;;;;;;;9.05;100.00;95864.47;5043820;28;20518;-74
2021/11/09 10:22:39;;;;;;;19.17;8.35;;;;;;;9.15;100.00;95877.91;5043107;28;20047;-75
2021/11/09 10:25:11;;;;;;;20.70;7.32;;;;;;;8.99;100.00;95866.06;5037237;28;20065;-74
2021/11/09 10:27:49;;;;;;;14.48;7.78;;;;;;;8.92;100.00;95873.81;5025359;28;20084;-75
2021/11/09 10:30:21;;;;;;;12.55;6.97;;;;;;;8.82;100.00;95875.97;5042864;28;20598;-74
2021/11/09 10:32:49;;;;;;;17.02;8.18;;;;;;;8.90;100.00;95883.63;5025143;28;20106;-74
2021/11/09 10:35:23;;;;;;;14.90;7.38;;;;;;;8.92;100.00;95889.41;5023228;28;20171;-76
2021/11/09 10:37:54;;;;;;;18.55;8.90;;;;;;;8.88;100.00;95879.63;5037638;28;20494;-75
2021/11/09 10:40:30;;;;;;;14.75;7.80;;;;;;;8.79;100.00;95886.78;5024206;28;20668;-76
2021/11/09 10:43:01;;;;;;;15.57;7.57;;;;;;;8.80;100.00;95898.75;5041505;28;20045;-73
2021/11/09 10:45:35;;;;;;;16.10;8.07;;;;;;;8.74;100.00;95904.72;5043119;28;20048;-73
2021/11/09 10:48:15;;;;;;;23.25;10.63;;;;;;;8.48;100.00;95869.03;5044267;28;20128;-73
2021/11/09 10:50:45;;;;;;;19.05;8.40;;;;;;;8.52;100.00;95881.44;5044960;28;20068;-72
2021/11/09 11:04:12;;;;;;;15.77;7.72;;;;;;;8.38;100.00;95905.69;5043481;28;20525;-72
2021/11/09 11:06:47;;;;;;;17.15;6.38;;;;;;;8.26;100.00;95917.59;5044340;28;20417;-72
2021/11/09 11:09:14;;;;;;;;;;;;;;;8.13;100.00;95923.50;5044861;28;20045;-72
2021/11/09 11:12:05;;;;;;;19.10;7.88;;;;;;;8.10;100.00;95923.84;5029830;28;19921;-72
2021/11/09 11:14:32;;;;;;;12.02;6.20;;;;;;;8.11;100.00;95926.28;5044337;28;20045;-72
2021/11/09 11:17:06;;;;;;;14.00;7.90;;;;;;;7.96;100.00;95902.19;5043861;28;20045;-73
2021/11/09 11:19:37;;;;;;;16.77;8.15;;;;;;;7.99;100.00;95923.38;5043227;28;20053;-73
2021/11/09 11:22:11;;;;;;;15.38;8.13;;;;;;;7.96;100.00;95930.72;5044732;28;20044;-74
2021/11/09 11:24:39;;;;;;;21.42;7.78;;;;;;;7.84;100.00;95933.84;5043483;28;20045;-73
2021/11/09 11:27:10;;;;;;;16.92;8.20;;;;;;;7.80;100.00;95935.19;5040247;28;20125;-73
2021/11/09 11:29:38;;;;;;;15.90;7.68;;;;;;;7.82;100.00;95935.81;5042188;28;20044;-72
2021/11/09 11:32:17;;;;;;;16.38;8.85;;;;;;;7.75;100.00;95945.31;5025273;28;20510;-72
2021/11/09 11:34:45;;;;;;;15.15;7.18;;;;;;;7.65;100.00;95943.06;5043402;28;20430;-72
2021/11/09 11:37:13;;;;;;;19.58;8.43;;;;;;;7.62;100.00;95942.63;5045776;28;20041;-73
2021/11/09 11:39:41;;;;;;;13.95;7.20;;;;;;;7.62;100.00;95963.38;5047118;28;20045;-74
2021/11/09 11:42:13;;;;;;;19.27;8.85;;;;;;;7.67;100.00;95948.06;5045916;28;20509;-73
2021/11/09 11:44:42;;;;;;;21.35;8.60;;;;;;;7.65;100.00;95942.22;5047009;28;20482;-74
2021/11/09 11:47:21;;;;;;;13.55;6.50;;;;;;;7.59;100.00;95933.41;5028636;28;20127;-75
2021/11/09 11:50:04;;;;;;;14.40;7.38;;;;;;;7.80;100.00;95945.56;5045501;28;20547;-75
2021/11/09 11:52:33;;;;;;;16.75;7.63;;;;;;;7.80;100.00;95949.97;5045551;28;20053;-75
2021/11/09 11:55:04;;;;;;;26.42;11.05;;;;;;;7.85;100.00;95963.97;5046425;28;20045;-73
2021/11/09 11:57:51;;;;;;;16.10;6.57;;;;;;;7.81;100.00;95996.47;5045960;28;20487;-73
2021/11/09 12:00:39;;;;;;;15.90;6.03;;;;;;;7.52;100.00;95974.00;5028224;28;20477;-73
2021/11/09 12:03:23;;;;;;;12.02;7.50;;;;;;;7.54;100.00;95984.19;5045449;28;20040;-72
2021/11/09 12:05:58;;;;;;;10.10;5.60;;;;;;;7.57;100.00;95994.22;5045678;28;20045;-75
2021/11/09 12:08:42;;;;;;;11.68;6.03;;;;;;;7.46;100.00;96011.84;5047052;28;20041;-74
2021/11/09 12:11:35;;;;;;;10.32;6.13;;;;;;;7.39;100.00;96016.16;5045938;28;20040;-73
2021/11/09 12:14:10;;;;;;;9.55;5.18;;;;;;;7.24;100.00;96012.78;5027269;28;20045;-72
2021/11/09 12:16:56;;;;;;;10.55;5.60;;;;;;;7.27;100.00;96015.00;5046303;28;20510;-72
2021/11/09 12:19:35;;;;;;;8.05;3.85;;;;;;;7.31;100.00;96018.84;5046251;28;20552;-72
2021/11/09 12:22:11;;;;;;;10.13;4.95;;;;;;;7.28;100.00;96029.56;5025526;28;20071;-74
2021/11/09 12:24:48;;;;;;;8.65;4.55;;;;;;;7.21;100.00;96033.88;5045498;28;20144;-73
2021/11/09 12:27:16;;;;;;;5.50;3.38;;;;;;;7.21;100.00;96033.88;5043934;28;20053;-72
2021/11/09 12:29:54;;;;;;;7.60;4.65;;;;;;;7.13;100.00;96021.81;5040298;28;20060;-73
2021/11/09 12:32:20;;;;;;;5.38;2.58;;;;;;;7.06;100.00;96037.28;5039593;28;20044;-73
2021/11/09 12:35:08;;;;;;;4.65;2.58;;;;;;;7.15;100.00;96034.56;5039624;28;20524;-72
2021/11/09 12:37:43;;;;;;;4.93;2.33;;;;;;;6.99;100.00;96036.38;5042141;28;20461;-79
2021/11/09 12:40:29;;;;;;;10.43;3.47;;;;;;;6.99;100.00;96041.56;5045706;28;20047;-77
2021/11/09 12:43:20;;;;;;;5.95;3.30;;;;;;;6.97;100.00;96038.34;5047196;28;20498;-73
2021/11/09 12:45:53;;;;;;;4.90;2.75;;;;;;;6.97;100.00;96053.06;5044271;28;20049;-72
2021/11/09 12:48:31;;;;;;;6.03;2.92;;;;;;;6.89;100.00;96051.38;5041508;28;20044;-73
2021/11/09 12:51:11;;;;;;;2.55;1.50;;;;;;;6.92;100.00;96061.38;5044533;28;20133;-72
2021/11/09 12:53:39;;;;;;;5.35;2.47;;;;;;;6.96;100.00;96083.34;5027150;28;20545;-72
2021/11/09 12:56:12;;;;;;;3.38;2.35;;;;;;;6.87;100.00;96077.44;5044466;28;20422;-72
2021/11/09 12:58:55;;;;;;;5.68;3.30;;;;;;;6.94;100.00;96085.31;5045265;28;20079;-72
2021/11/09 13:04:12;;;;;;;6.97;3.20;;;;;;;6.91;100.00;96088.25;5042049;28;20076;-72
2021/11/09 13:09:51;;;;;;;4.13;1.92;;;;;;;6.92;100.00;96091.66;5043233;28;20047;-73
2021/11/09 13:12:25;;;;;;;4.72;2.70;;;;;;;6.86;100.00;96095.72;5044568;28;20041;-76
2021/11/09 13:14:58;;;;;;;6.40;3.92;;;;;;;6.90;100.00;96094.44;5028332;28;20052;-75
2021/11/09 13:17:44;;;;;;;5.18;2.47;;;;;;;6.88;100.00;96106.75;5044165;28;20033;-77
2021/11/09 13:20:20;;;;;;;5.25;3.03;;;;;;;6.80;100.00;96110.19;5041804;28;20045;-79
2021/11/09 13:22:58;;;;;;;5.00;3.25;;;;;;;6.86;100.00;96103.50;5047215;28;20055;-79
2021/11/09 13:25:27;;;;;;;12.00;6.10;;;;;;;6.87;100.00;96089.59;5043874;28;20062;-81
2021/11/09 13:27:54;;;;;;;12.05;5.55;;;;;;;6.65;100.00;96088.66;5048155;28;20049;-80
2021/11/09 13:30:39;;;;;;;15.75;5.82;;;;;;;6.72;100.00;96091.34;5027313;28;20078;-79
2021/11/09 13:33:08;;;;;;;10.85;4.95;;;;;;;6.86;100.00;96119.03;5048592;28;20446;-78
2021/11/09 13:35:48;;;;;;;8.43;4.07;;;;;;;6.94;100.00;96121.56;5048173;28;20043;-78
2021/11/09 13:38:18;;;;;;;7.95;3.50;;;;;;;6.89;100.00;96135.03;5029665;28;20118;-78
2021/11/09 13:40:52;;;;;;;12.25;5.47;;;;;;;6.90;100.00;96135.88;5046200;28;20056;-78
2021/11/09 13:43:23;;;;;;;8.40;4.90;;;;;;;6.81;100.00;96122.19;5044573;28;20048;-77
2021/11/09 13:46:04;;;;;;;8.32;4.60;;;;;;;6.91;100.00;96132.28;5046462;28;20458;-74
2021/11/09 13:48:58;;;;;;;9.27;4.85;;;;;;;6.88;100.00;96137.81;5028006;28;20506;-74
2021/11/09 13:51:29;;;;;;;3.92;2.42;;;;;;;6.86;100.00;96135.41;5027263;28;20063;-73
2021/11/09 13:53:59;;;;;;;4.25;2.88;;;;;;;6.87;100.00;96136.19;5026879;28;20049;-72
2021/11/09 13:56:29;;;;;;;4.35;2.20;;;;;;;6.88;100.00;96137.81;5038510;28;20102;-72
2021/11/09 13:59:03;;;;;;;5.30;2.53;;;;;;;6.83;100.00;96147.91;5026379;28;20029;-72
2021/11/09 14:01:55;;;;;;;4.13;3.15;;;;;;;6.77;100.00;96162.34;5042814;28;20045;-73